createdAt,value
2019-02-17T00:00:51.471Z,102902.65
2019-02-17T00:03:54.671Z,102903.96
2019-02-17T00:06:57.903Z,102898.75
2019-02-17T00:10:01.047Z,102905.27
2019-02-17T00:13:04.139Z,102908.14
2019-02-17T00:16:07.244Z,102902.22
2019-02-17T00:19:10.514Z,102905.27
2019-02-17T00:22:13.635Z,102901.95
2019-02-17T00:25:16.847Z,102900.90
2019-02-17T00:28:20.114Z,102907.29
2019-02-17T00:31:23.360Z,102910.53
2019-02-17T00:34:26.595Z,102911.61
2019-02-17T00:37:29.755Z,102911.96
2019-02-17T00:40:32.936Z,102913.20
2019-02-17T00:43:36.189Z,102912.30
2019-02-17T00:46:39.283Z,102909.21
2019-02-17T00:49:42.498Z,102909.62
2019-02-17T00:52:45.731Z,102911.60
2019-02-17T00:55:48.916Z,102901.96
2019-02-17T00:58:52.082Z,102904.35
2019-02-17T01:01:55.275Z,102905.51
2019-02-17T01:04:58.367Z,102905.51
2019-02-17T01:08:01.451Z,102904.29
2019-02-17T01:11:04.638Z,102901.07
2019-02-17T01:14:07.759Z,102905.87
2019-02-17T01:17:10.959Z,102900.34
2019-02-17T01:20:14.117Z,102902.36
2019-02-17T01:23:17.304Z,102910.17
2019-02-17T01:26:20.393Z,102904.41
2019-02-17T01:29:23.500Z,102897.26
2019-02-17T01:32:26.682Z,102903.54
2019-02-17T01:35:29.890Z,102897.97
2019-02-17T01:38:33.115Z,102897.01
2019-02-17T01:41:36.223Z,102890.10
2019-02-17T01:44:39.367Z,102889.91
2019-02-17T01:47:42.569Z,102883.92
2019-02-17T01:50:45.743Z,102877.68
2019-02-17T01:53:48.874Z,102880.31
2019-02-17T01:56:52.043Z,102880.96
2019-02-17T01:59:55.231Z,102880.87
2019-02-17T02:02:58.339Z,102873.54
2019-02-17T02:06:01.522Z,102872.96
2019-02-17T02:09:06.559Z,102872.41
2019-02-17T02:12:09.785Z,102864.13
2019-02-17T02:15:12.974Z,102864.92
2019-02-17T02:18:16.134Z,102864.15
2019-02-17T02:21:19.339Z,102860.95
2019-02-17T02:24:22.543Z,102861.25
2019-02-17T02:27:25.726Z,102855.50
2019-02-17T02:30:28.924Z,102851.15
2019-02-17T02:33:32.024Z,102853.89
2019-02-17T02:36:35.221Z,102857.20
2019-02-17T02:39:38.332Z,102857.75
2019-02-17T02:42:41.488Z,102856.37
2019-02-17T02:45:44.684Z,102861.81
2019-02-17T02:48:47.781Z,102858.29
2019-02-17T02:51:50.985Z,102860.57
2019-02-17T02:54:54.197Z,102860.26
2019-02-17T02:57:57.822Z,102864.55
2019-02-17T03:01:00.979Z,102866.85
2019-02-17T03:04:04.161Z,102866.86
2019-02-17T03:07:10.472Z,102869.49
2019-02-17T03:10:13.611Z,102873.94
2019-02-17T03:13:16.835Z,102868.45
2019-02-17T03:16:20.026Z,102867.37
2019-02-17T03:19:23.095Z,102867.92
2019-02-17T03:22:26.280Z,102872.87
2019-02-17T03:25:29.475Z,102872.33
2019-02-17T03:28:32.583Z,102869.20
2019-02-17T03:31:35.800Z,102872.45
2019-02-17T03:34:38.887Z,102876.30
2019-02-17T03:37:42.072Z,102884.12
2019-02-17T03:40:45.261Z,102880.09
2019-02-17T03:43:48.455Z,102880.92
2019-02-17T03:46:51.634Z,102879.71
2019-02-17T03:49:54.794Z,102876.60
2019-02-17T03:52:57.939Z,102883.78
2019-02-17T03:56:01.149Z,102880.52
2019-02-17T03:59:04.331Z,102878.13
2019-02-17T04:02:07.522Z,102877.62
2019-02-17T04:05:10.690Z,102874.80
2019-02-17T04:08:13.911Z,102870.02
2019-02-17T04:11:17.149Z,102869.66
2019-02-17T04:14:20.288Z,102869.27
2019-02-17T04:17:23.488Z,102870.34
2019-02-17T04:20:26.574Z,102869.44
2019-02-17T04:23:31.539Z,102867.70
2019-02-17T04:26:32.874Z,102861.55
2019-02-17T04:29:36.058Z,102862.85
2019-02-17T04:32:39.278Z,102864.71
2019-02-17T04:35:42.417Z,102869.87
2019-02-17T04:38:45.531Z,102867.13
2019-02-17T04:41:48.708Z,102863.79
2019-02-17T04:44:51.829Z,102863.49
2019-02-17T04:47:55.003Z,102861.22
2019-02-17T04:50:58.130Z,102861.07
2019-02-17T04:54:01.316Z,102859.79
2019-02-17T04:57:04.546Z,102862.59
2019-02-17T05:00:08.018Z,102861.63
2019-02-17T05:03:11.205Z,102857.68
2019-02-17T05:06:14.376Z,102860.22
2019-02-17T05:09:17.503Z,102857.89
2019-02-17T05:12:20.688Z,102856.79
2019-02-17T05:15:23.874Z,102848.77
2019-02-17T05:18:27.081Z,102855.81
2019-02-17T05:21:30.256Z,102851.95
2019-02-17T05:24:33.443Z,102846.24
2019-02-17T05:27:36.630Z,102846.00
2019-02-17T05:30:51.763Z,102850.06
2019-02-17T05:33:42.936Z,102849.18
2019-02-17T05:36:46.055Z,102850.13
2019-02-17T05:39:49.201Z,102849.09
2019-02-17T05:42:52.424Z,102851.64
2019-02-17T05:45:55.615Z,102850.85
2019-02-17T05:48:58.703Z,102848.75
2019-02-17T05:52:01.888Z,102853.64
2019-02-17T05:55:05.434Z,102858.04
2019-02-17T05:58:08.628Z,102855.76
2019-02-17T06:01:17.372Z,102854.02
2019-02-17T06:04:20.499Z,102864.19
2019-02-17T06:07:23.703Z,102870.42
2019-02-17T06:10:26.887Z,102874.67
2019-02-17T06:13:30.212Z,102874.56
2019-02-17T06:16:33.374Z,102878.43
2019-02-17T06:19:36.556Z,102882.25
2019-02-17T06:22:39.954Z,102885.42
2019-02-17T06:25:43.100Z,102890.25
2019-02-17T06:28:46.255Z,102896.81
2019-02-17T06:31:49.467Z,102902.31
2019-02-17T06:34:52.673Z,102899.19
2019-02-17T06:37:55.831Z,102898.88
2019-02-17T06:40:58.903Z,102897.65
2019-02-17T06:44:02.037Z,102901.12
2019-02-17T06:47:06.848Z,102897.89
2019-02-17T06:50:10.257Z,102901.57
2019-02-17T06:53:13.531Z,102897.98
2019-02-17T06:56:21.835Z,102894.72
2019-02-17T06:59:24.939Z,102899.80
2019-02-17T07:02:28.024Z,102903.97
2019-02-17T07:05:39.642Z,102905.28
2019-02-17T07:08:42.739Z,102899.55
2019-02-17T07:11:45.988Z,102900.84
2019-02-17T07:14:49.159Z,102895.43
2019-02-17T07:17:52.305Z,102904.49
2019-02-17T07:20:55.554Z,102894.55
2019-02-17T07:23:58.715Z,102903.44
2019-02-17T07:27:01.963Z,102901.45
2019-02-17T07:30:05.246Z,102903.75
2019-02-17T07:33:08.401Z,102899.24
2019-02-17T07:36:11.597Z,102893.80
2019-02-17T07:39:14.856Z,102896.66
2019-02-17T07:42:18.011Z,102898.53
2019-02-17T07:45:21.224Z,102895.05
2019-02-17T07:48:24.349Z,102890.56
2019-02-17T07:51:27.549Z,102890.74
2019-02-17T07:54:30.639Z,102888.95
2019-02-17T07:57:33.835Z,102880.62
2019-02-17T08:00:36.939Z,102877.38
2019-02-17T08:03:40.143Z,102880.00
2019-02-17T08:06:43.245Z,102878.83
2019-02-17T08:09:46.429Z,102871.11
2019-02-17T08:12:49.613Z,102869.11
2019-02-17T08:15:52.792Z,102872.67
2019-02-17T08:18:56.007Z,102861.46
2019-02-17T08:21:59.100Z,102854.79
2019-02-17T08:25:02.274Z,102859.32
2019-02-17T08:28:05.359Z,102848.93
2019-02-17T08:31:08.461Z,102862.51
2019-02-17T08:34:11.577Z,102859.60
2019-02-17T08:37:14.752Z,102855.36
2019-02-17T08:40:17.998Z,102849.53
2019-02-17T08:43:21.434Z,102851.16
2019-02-17T08:46:24.531Z,102847.50
2019-02-17T08:49:27.637Z,102850.57
2019-02-17T08:52:30.827Z,102849.09
2019-02-17T08:55:34.011Z,102849.38
2019-02-17T08:58:37.207Z,102851.97
2019-02-17T09:01:40.551Z,102853.27
2019-02-17T09:04:43.611Z,102848.45
2019-02-17T09:07:46.816Z,102851.23
2019-02-17T09:10:49.990Z,102842.57
2019-02-17T09:13:53.198Z,102846.02
2019-02-17T09:16:56.292Z,102841.21
2019-02-17T09:19:59.484Z,102836.36
2019-02-17T09:23:02.640Z,102840.15
2019-02-17T09:26:05.859Z,102828.85
2019-02-17T09:29:09.071Z,102832.09
2019-02-17T09:32:16.217Z,102828.44
2019-02-17T09:35:15.466Z,102827.33
2019-02-17T09:38:18.649Z,102821.41
2019-02-17T09:41:21.834Z,102822.68
2019-02-17T09:44:25.068Z,102829.29
2019-02-17T09:47:28.267Z,102824.06
2019-02-17T09:50:31.454Z,102826.51
2019-02-17T09:53:34.613Z,102825.63
2019-02-17T09:56:37.869Z,102818.59
2019-02-17T09:59:41.029Z,102819.43
2019-02-17T10:02:44.203Z,102811.36
2019-02-17T10:05:47.398Z,102810.52
2019-02-17T10:08:50.571Z,102804.35
2019-02-17T10:11:53.791Z,102805.78
2019-02-17T10:14:56.958Z,102808.51
2019-02-17T10:18:00.059Z,102807.07
2019-02-17T10:21:03.252Z,102804.46
2019-02-17T10:24:06.349Z,102805.09
2019-02-17T10:27:09.529Z,102806.89
2019-02-17T10:30:12.895Z,102798.32
2019-02-17T10:33:15.979Z,102798.98
2019-02-17T10:36:19.133Z,102790.47
2019-02-17T10:39:22.207Z,102782.98
2019-02-17T10:42:25.420Z,102776.94
2019-02-17T10:45:28.603Z,102772.34
2019-02-17T10:48:31.687Z,102767.40
2019-02-17T10:51:34.899Z,102762.02
2019-02-17T10:54:37.998Z,102756.24
2019-02-17T10:57:41.203Z,102750.17
2019-02-17T11:00:44.398Z,102742.86
2019-02-17T11:03:59.892Z,102725.63
2019-02-17T11:07:03.021Z,102723.11
2019-02-17T11:10:06.714Z,102722.02
2019-02-17T11:13:09.851Z,102723.01
2019-02-17T11:16:13.051Z,102717.60
2019-02-17T11:19:16.239Z,102708.59
2019-02-17T11:22:23.125Z,102707.89
2019-02-17T11:25:22.680Z,102700.40
2019-02-17T11:28:25.831Z,102696.15
2019-02-17T11:31:29.035Z,102694.52
2019-02-17T11:34:32.243Z,102685.61
2019-02-17T11:37:35.404Z,102684.74
2019-02-17T11:40:38.649Z,102680.37
2019-02-17T11:43:41.808Z,102676.08
2019-02-17T11:46:44.912Z,102669.91
2019-02-17T11:49:48.095Z,102668.03
2019-02-17T11:52:51.265Z,102662.17
2019-02-17T11:55:54.410Z,102657.73
2019-02-17T11:58:57.595Z,102658.51
2019-02-17T12:02:00.769Z,102650.54
2019-02-17T12:05:04.032Z,102643.60
2019-02-17T12:08:07.194Z,102637.41
2019-02-17T12:11:10.364Z,102633.51
2019-02-17T12:14:13.591Z,102625.67
2019-02-17T12:17:16.757Z,102617.88
2019-02-17T12:22:32.400Z,102613.36
2019-02-17T12:25:40.694Z,102601.40
2019-02-17T12:28:49.503Z,102595.69
2019-02-17T12:31:52.723Z,102591.57
2019-02-17T12:34:55.901Z,102585.91
2019-02-17T12:37:59.086Z,102577.19
2019-02-17T12:41:02.153Z,102570.08
2019-02-17T12:44:05.403Z,102570.40
2019-02-17T12:47:08.577Z,102561.05
2019-02-17T12:50:12.346Z,102555.06
2019-02-17T12:53:15.425Z,102562.29
2019-02-17T12:56:18.575Z,102555.49
2019-02-17T12:59:21.731Z,102551.72
2019-02-17T13:02:24.951Z,102547.95
2019-02-17T13:05:28.077Z,102541.67
2019-02-17T13:08:31.228Z,102530.74
2019-02-17T13:11:34.303Z,102531.28
2019-02-17T13:14:37.409Z,102529.61
2019-02-17T13:17:40.602Z,102514.75
2019-02-17T13:20:43.841Z,102515.63
2019-02-17T13:23:47.299Z,102507.16
2019-02-17T13:26:50.498Z,102507.19
2019-02-17T13:29:53.699Z,102502.87
2019-02-17T13:32:56.872Z,102500.08
2019-02-17T13:36:00.027Z,102493.75
2019-02-17T13:39:03.172Z,102486.35
2019-02-17T13:42:06.315Z,102482.87
2019-02-17T13:45:10.848Z,102481.38
2019-02-17T13:48:13.969Z,102479.90
2019-02-17T13:51:17.054Z,102471.55
2019-02-17T13:54:20.284Z,102466.75
2019-02-17T13:57:23.370Z,102476.69
2019-02-17T14:00:26.548Z,102469.49
2019-02-17T14:03:29.668Z,102464.56
2019-02-17T14:06:32.824Z,102459.99
2019-02-17T14:09:35.944Z,102453.78
2019-02-17T14:12:39.111Z,102459.15
2019-02-17T14:15:42.241Z,102452.09
2019-02-17T14:18:45.415Z,102445.35
2019-02-17T14:21:48.639Z,102451.39
2019-02-17T14:24:51.822Z,102445.46
2019-02-17T14:27:55.012Z,102444.64
2019-02-17T14:30:58.107Z,102440.37
2019-02-17T14:34:01.303Z,102436.20
2019-02-17T14:37:04.399Z,102433.47
2019-02-17T14:40:07.598Z,102432.52
2019-02-17T14:43:10.752Z,102432.51
2019-02-17T14:46:13.943Z,102427.33
2019-02-17T14:49:18.063Z,102425.53
2019-02-17T14:52:21.155Z,102428.20
2019-02-17T14:55:24.376Z,102427.81
2019-02-17T14:58:27.543Z,102427.16
2019-02-17T15:01:30.635Z,102427.27
2019-02-17T15:04:33.727Z,102426.22
2019-02-17T15:07:36.917Z,102426.12
2019-02-17T15:10:40.016Z,102427.11
2019-02-17T15:13:43.091Z,102426.68
2019-02-17T15:16:46.229Z,102422.43
2019-02-17T15:19:49.397Z,102425.62
2019-02-17T15:22:52.570Z,102421.59
2019-02-17T15:25:55.784Z,102419.82
2019-02-17T15:28:59.007Z,102415.15
2019-02-17T15:32:02.217Z,102415.42
2019-02-17T15:35:05.445Z,102415.62
2019-02-17T15:38:08.565Z,102421.86
2019-02-17T15:41:11.847Z,102427.79
2019-02-17T15:44:14.961Z,102428.41
2019-02-17T15:47:18.185Z,102419.23
2019-02-17T15:50:21.366Z,102412.06
2019-02-17T15:53:24.563Z,102409.06
2019-02-17T15:56:27.693Z,102408.03
2019-02-17T15:59:30.875Z,102403.22
2019-02-17T16:02:33.966Z,102396.52
2019-02-17T16:05:37.072Z,102398.08
2019-02-17T16:08:40.183Z,102392.33
2019-02-17T16:11:43.265Z,102388.42
2019-02-17T16:14:46.338Z,102388.65
2019-02-17T16:17:49.503Z,102387.62
2019-02-17T16:20:52.688Z,102381.08
2019-02-17T16:23:55.874Z,102381.74
2019-02-17T16:26:59.123Z,102377.59
2019-02-17T16:30:02.295Z,102385.32
2019-02-17T16:33:05.465Z,102379.85
2019-02-17T16:36:08.671Z,102375.99
2019-02-17T16:39:13.119Z,102372.84
2019-02-17T16:42:16.239Z,102369.49
2019-02-17T16:45:19.554Z,102369.56
2019-02-17T16:48:22.761Z,102373.16
2019-02-17T16:51:25.860Z,102370.82
2019-02-17T16:54:29.063Z,102372.79
2019-02-17T16:57:32.284Z,102379.11
2019-02-17T17:00:35.546Z,102372.92
2019-02-17T17:03:38.635Z,102375.65
2019-02-17T17:06:41.827Z,102371.23
2019-02-17T17:09:45.101Z,102375.37
2019-02-17T17:12:48.276Z,102377.26
2019-02-17T17:15:51.427Z,102381.29
2019-02-17T17:18:54.596Z,102378.84
2019-02-17T17:21:57.675Z,102383.36
2019-02-17T17:25:00.783Z,102386.25
2019-02-17T17:28:04.607Z,102400.27
2019-02-17T17:31:07.795Z,102399.47
2019-02-17T17:34:11.090Z,102405.55
2019-02-17T17:37:14.182Z,102408.91
2019-02-17T17:40:17.414Z,102411.21
2019-02-17T17:43:20.582Z,102408.42
2019-02-17T17:46:23.711Z,102413.73
2019-02-17T17:49:26.835Z,102410.01
2019-02-17T17:52:29.999Z,102417.66
2019-02-17T17:55:33.148Z,102419.07
2019-02-17T17:58:36.379Z,102420.04
2019-02-17T18:01:39.575Z,102418.41
2019-02-17T18:04:42.742Z,102416.92
2019-02-17T18:07:45.907Z,102418.30
2019-02-17T18:10:49.004Z,102420.57
2019-02-17T18:13:52.116Z,102423.37
2019-02-17T18:16:55.319Z,102426.86
2019-02-17T18:19:58.516Z,102434.45
2019-02-17T18:23:01.693Z,102434.56
2019-02-17T18:26:04.911Z,102436.31
2019-02-17T18:29:08.078Z,102440.79
2019-02-17T18:32:11.215Z,102439.66
2019-02-17T18:35:19.624Z,102437.84
2019-02-17T18:38:17.770Z,102441.55
2019-02-17T18:41:26.636Z,102440.53
2019-02-17T18:44:29.890Z,102449.28
2019-02-17T18:47:33.105Z,102449.52
2019-02-17T18:50:36.218Z,102446.18
2019-02-17T18:53:39.372Z,102451.21
2019-02-17T18:56:42.483Z,102455.72
2019-02-17T18:59:45.675Z,102456.38
2019-02-17T19:02:48.845Z,102459.51
2019-02-17T19:05:51.943Z,102459.29
2019-02-17T19:08:55.180Z,102464.40
2019-02-17T19:11:58.263Z,102459.29
2019-02-17T19:15:01.422Z,102469.72
2019-02-17T19:18:04.522Z,102471.38
2019-02-17T19:21:07.739Z,102468.29
2019-02-17T19:24:10.857Z,102463.22
2019-02-17T19:27:14.003Z,102467.90
2019-02-17T19:30:17.215Z,102467.02
2019-02-17T19:33:20.623Z,102472.93
2019-02-17T19:36:23.831Z,102474.20
2019-02-17T19:39:26.958Z,102468.79
2019-02-17T19:42:30.128Z,102462.73
2019-02-17T19:45:34.182Z,102466.07
2019-02-17T19:48:37.312Z,102469.38
2019-02-17T19:51:40.497Z,102467.50
2019-02-17T19:54:43.694Z,102471.09
2019-02-17T19:57:47.055Z,102471.72
2019-02-17T20:00:49.986Z,102471.07
2019-02-17T20:03:58.390Z,102464.47
2019-02-17T20:07:01.687Z,102470.44
2019-02-17T20:10:05.183Z,102471.88
2019-02-17T20:13:08.570Z,102477.17
2019-02-17T20:16:11.498Z,102476.63
2019-02-17T20:19:14.627Z,102481.61
2019-02-17T20:22:17.859Z,102485.52
2019-02-17T20:25:21.054Z,102492.15
2019-02-17T20:28:35.683Z,102492.02
2019-02-17T20:31:27.438Z,102492.87
2019-02-17T20:34:30.634Z,102487.78
2019-02-17T20:37:33.843Z,102483.49
2019-02-17T20:40:37.023Z,102479.28
2019-02-17T20:43:40.232Z,102477.25
2019-02-17T20:46:43.452Z,102477.85
2019-02-17T20:49:46.555Z,102473.05
2019-02-17T20:52:49.704Z,102473.73
2019-02-17T20:55:52.776Z,102474.75
2019-02-17T20:58:55.899Z,102465.98
2019-02-17T21:01:59.076Z,102475.23
2019-02-17T21:05:02.270Z,102468.55
2019-02-17T21:08:05.462Z,102466.81
2019-02-17T21:11:08.551Z,102469.40
2019-02-17T21:14:11.629Z,102472.30
2019-02-17T21:17:14.692Z,102472.01
2019-02-17T21:20:18.298Z,102470.23
2019-02-17T21:23:21.409Z,102473.88
2019-02-17T21:26:26.424Z,102468.18
2019-02-17T21:29:27.824Z,102461.37
2019-02-17T21:32:31.059Z,102470.98
2019-02-17T21:35:34.221Z,102464.06
2019-02-17T21:38:37.406Z,102464.66
2019-02-17T21:41:40.527Z,102465.89
2019-02-17T21:44:43.700Z,102469.59
2019-02-17T21:47:46.811Z,102469.39
2019-02-17T21:50:49.982Z,102470.86
2019-02-17T21:53:53.169Z,102476.37
2019-02-17T21:56:56.274Z,102468.79
2019-02-17T21:59:59.442Z,102476.81
2019-02-17T22:03:02.578Z,102473.05
2019-02-17T22:06:05.779Z,102478.61
2019-02-17T22:09:08.948Z,102471.40
2019-02-17T22:12:12.155Z,102477.86
2019-02-17T22:15:15.595Z,102481.89
2019-02-17T22:18:18.735Z,102479.42
2019-02-17T22:21:22.039Z,102483.41
2019-02-17T22:24:25.124Z,102478.91
2019-02-17T22:27:28.313Z,102473.57
2019-02-17T22:30:31.436Z,102473.67
2019-02-17T22:33:34.604Z,102467.19
2019-02-17T22:36:43.685Z,102478.15
2019-02-17T22:39:41.008Z,102476.61
2019-02-17T22:42:44.175Z,102473.75
2019-02-17T22:45:47.462Z,102478.67
2019-02-17T22:48:51.471Z,102473.02
2019-02-17T22:51:54.586Z,102476.38
2019-02-17T22:54:57.694Z,102480.27
2019-02-17T22:58:00.885Z,102483.35
2019-02-17T23:01:06.369Z,102484.23
2019-02-17T23:04:09.495Z,102484.73
2019-02-17T23:07:12.609Z,102492.24
2019-02-17T23:10:15.722Z,102488.70
2019-02-17T23:13:18.899Z,102488.24
2019-02-17T23:19:21.501Z,102491.61
2019-02-17T23:22:24.783Z,102494.18
2019-02-17T23:25:27.891Z,102498.53
2019-02-17T23:28:31.101Z,102498.96
2019-02-17T23:31:34.371Z,102494.99
2019-02-17T23:34:37.520Z,102499.14
2019-02-17T23:37:40.778Z,102499.34
2019-02-17T23:40:43.992Z,102501.23
2019-02-17T23:43:47.206Z,102504.51
2019-02-17T23:46:50.359Z,102504.32
2019-02-17T23:49:53.555Z,102504.10
2019-02-17T23:52:56.758Z,102509.97
2019-02-17T23:55:59.939Z,102506.44
2019-02-17T23:59:03.246Z,102510.71
